createdAt,value
2022-08-07T00:02:36.989Z,100084.59
2022-08-07T00:05:05.564Z,100101.31
2022-08-07T00:07:40.396Z,100084.88
2022-08-07T00:10:26.208Z,100085.66
2022-08-07T00:12:59.826Z,100092.53
2022-08-07T00:15:36.164Z,100104.66
2022-08-07T00:18:24.255Z,100100.31
2022-08-07T00:21:07.959Z,100076.38
2022-08-07T00:23:54.415Z,100095.72
2022-08-07T00:26:48.749Z,100103.59
2022-08-07T00:29:13.088Z,100095.19
2022-08-07T00:31:43.955Z,100098.84
2022-08-07T00:34:18.279Z,100063.81
2022-08-07T00:36:49.791Z,100083.03
2022-08-07T00:39:20.454Z,100103.66
2022-08-07T00:42:01.890Z,100105.06
2022-08-07T00:44:34.855Z,100109.88
2022-08-07T00:47:06.469Z,100079.53
2022-08-07T00:50:20.419Z,100111.31
2022-08-07T00:52:41.700Z,100101.75
2022-08-07T00:55:25.567Z,100105.41
2022-08-07T00:58:07.119Z,100101.75
2022-08-07T01:00:35.150Z,100094.50
2022-08-07T01:03:04.393Z,100100.00
2022-08-07T01:05:36.527Z,100106.00
2022-08-07T01:08:06.246Z,100111.63
2022-08-07T01:10:39.554Z,100066.81
2022-08-07T01:13:16.360Z,100112.97
2022-08-07T01:16:05.009Z,100109.75
2022-08-07T01:18:36.055Z,100114.41
2022-08-07T01:21:22.815Z,100114.69
2022-08-07T01:23:58.255Z,100070.22
2022-08-07T01:26:27.291Z,100062.41
2022-08-07T01:28:56.195Z,100115.88
2022-08-07T01:31:42.748Z,100069.03
2022-08-07T01:34:15.834Z,100076.75
2022-08-07T01:36:52.953Z,100113.63
2022-08-07T01:39:40.552Z,100115.16
2022-08-07T01:42:38.517Z,100120.91
2022-08-07T01:45:17.727Z,100073.09
2022-08-07T01:48:19.302Z,100118.13
2022-08-07T01:50:43.061Z,100121.25
2022-08-07T01:53:20.875Z,100105.41
2022-08-07T01:56:40.134Z,100120.13
2022-08-07T01:59:45.359Z,100116.91
2022-08-07T02:02:32.592Z,100114.09
2022-08-07T02:05:48.222Z,100119.91
2022-08-07T02:08:23.824Z,100130.03
2022-08-07T02:10:59.773Z,100124.53
2022-08-07T02:13:58.217Z,100119.09
2022-08-07T02:16:32.984Z,100126.81
2022-08-07T02:20:07.094Z,100077.44
2022-08-07T02:21:58.519Z,100085.31
2022-08-07T02:24:30.055Z,100134.16
2022-08-07T02:27:02.621Z,100054.78
2022-08-07T02:29:43.599Z,100135.03
2022-08-07T02:32:23.193Z,100136.03
2022-08-07T02:34:53.508Z,100126.91
2022-08-07T02:37:28.732Z,100135.06
2022-08-07T02:40:30.472Z,100128.31
2022-08-07T02:43:00.469Z,100107.84
2022-08-07T02:45:58.164Z,100132.84
2022-08-07T02:48:20.334Z,100128.78
2022-08-07T02:50:52.747Z,100125.41
2022-08-07T02:53:38.801Z,100121.91
2022-08-07T02:56:21.201Z,100074.44
2022-08-07T02:58:55.150Z,100131.59
2022-08-07T03:01:36.329Z,100121.78
2022-08-07T03:04:14.012Z,100128.22
2022-08-07T03:06:46.104Z,100080.19
2022-08-07T03:09:43.960Z,100136.50
2022-08-07T03:12:22.069Z,100101.13
2022-08-07T03:14:54.138Z,100132.28
2022-08-07T03:17:23.870Z,100113.16
2022-08-07T03:19:56.503Z,100138.78
2022-08-07T03:22:30.608Z,100134.66
2022-08-07T03:25:01.267Z,100138.16
2022-08-07T03:27:42.212Z,100104.91
2022-08-07T03:30:28.599Z,100158.66
2022-08-07T03:33:01.738Z,100054.09
2022-08-07T03:35:43.422Z,100149.44
2022-08-07T03:38:15.416Z,100152.25
2022-08-07T03:40:45.552Z,100106.72
2022-08-07T03:43:22.287Z,100147.34
2022-08-07T03:45:56.003Z,100148.75
2022-08-07T03:48:29.797Z,100150.28
2022-08-07T03:51:00.864Z,100155.06
2022-08-07T03:54:02.068Z,100119.66
2022-08-07T03:56:33.411Z,100155.19
2022-08-07T03:59:12.830Z,100111.38
2022-08-07T04:01:46.746Z,100138.19
2022-08-07T04:04:18.635Z,100160.34
2022-08-07T04:06:52.640Z,100160.66
2022-08-07T04:09:25.324Z,100109.00
2022-08-07T04:12:23.897Z,100097.91
2022-08-07T04:14:58.476Z,100079.66
2022-08-07T04:18:31.023Z,100158.34
2022-08-07T04:20:19.710Z,100166.16
2022-08-07T04:22:53.355Z,100092.75
2022-08-07T04:25:24.207Z,100170.34
2022-08-07T04:28:00.780Z,100166.63
2022-08-07T04:30:44.025Z,100116.91
2022-08-07T04:33:25.756Z,100172.19
2022-08-07T04:35:55.179Z,100157.00
2022-08-07T04:38:29.254Z,100168.69
2022-08-07T04:40:58.932Z,100165.00
2022-08-07T04:44:10.216Z,100163.78
2022-08-07T04:47:03.770Z,100174.25
2022-08-07T04:50:05.049Z,100167.81
2022-08-07T04:53:05.079Z,100182.34
2022-08-07T04:58:12.232Z,100175.06
2022-08-07T04:59:17.818Z,100151.59
2022-08-07T05:02:28.740Z,100137.50
2022-08-07T05:05:52.816Z,100174.44
2022-08-07T05:09:01.585Z,100186.88
2022-08-07T05:11:57.087Z,100147.88
2022-08-07T05:14:52.665Z,100084.59
2022-08-07T05:18:00.647Z,100194.03
2022-08-07T05:20:14.389Z,100198.88
2022-08-07T05:22:49.773Z,100190.78
2022-08-07T05:25:25.936Z,100210.16
2022-08-07T05:28:21.119Z,100213.81
2022-08-07T05:30:56.765Z,100204.72
2022-08-07T05:33:29.814Z,100220.81
2022-08-07T05:35:59.509Z,100220.25
2022-08-07T05:39:00.263Z,100218.53
2022-08-07T05:41:21.751Z,100221.25
2022-08-07T05:44:11.726Z,100222.50
2022-08-07T05:46:51.242Z,100207.81
2022-08-07T05:49:25.951Z,100192.47
2022-08-07T05:51:55.924Z,100175.81
2022-08-07T05:54:30.943Z,100197.41
2022-08-07T05:57:16.810Z,100206.72
2022-08-07T05:59:57.405Z,100206.78
2022-08-07T06:02:33.572Z,100226.16
2022-08-07T06:05:15.911Z,100207.72
2022-08-07T06:08:15.133Z,100202.72
2022-08-07T06:10:39.707Z,100201.25
2022-08-07T06:13:13.664Z,100211.47
2022-08-07T06:15:45.788Z,100216.81
2022-08-07T06:18:23.660Z,100186.28
2022-08-07T06:22:15.815Z,100205.47
2022-08-07T06:24:37.816Z,100210.22
2022-08-07T06:26:34.150Z,100208.34
2022-08-07T06:29:06.527Z,100205.75
2022-08-07T06:31:46.889Z,100212.72
2022-08-07T06:34:20.790Z,100217.75
2022-08-07T06:36:52.061Z,100213.84
2022-08-07T06:40:13.398Z,100194.28
2022-08-07T06:42:32.887Z,100219.97
2022-08-07T06:45:18.583Z,100216.31
2022-08-07T06:47:59.496Z,100213.94
2022-08-07T06:50:49.845Z,100214.56
2022-08-07T06:55:28.914Z,100214.34
2022-08-07T06:56:17.950Z,100170.72
2022-08-07T07:00:11.977Z,100210.03
2022-08-07T07:01:50.827Z,100110.59
2022-08-07T07:04:32.650Z,100159.06
2022-08-07T07:07:18.877Z,100167.66
2022-08-07T07:09:55.902Z,100130.09
2022-08-07T07:12:37.429Z,100189.97
2022-08-07T07:15:51.514Z,100197.91
2022-08-07T07:18:48.026Z,100159.72
2022-08-07T07:21:26.967Z,100207.09
2022-08-07T07:24:12.679Z,100192.88
2022-08-07T07:26:51.883Z,100183.25
2022-08-07T07:29:56.491Z,100170.81
2022-08-07T07:32:17.737Z,100200.75
2022-08-07T07:34:57.765Z,100182.34
2022-08-07T07:37:49.653Z,100181.84
2022-08-07T07:40:26.121Z,100185.81
2022-08-07T07:42:57.817Z,100183.91
2022-08-07T07:46:37.922Z,100189.50
2022-08-07T07:48:36.096Z,100165.31
2022-08-07T07:51:08.058Z,100190.97
2022-08-07T07:53:51.993Z,100199.78
2022-08-07T07:56:30.079Z,100195.81
2022-08-07T07:59:06.823Z,100192.31
2022-08-07T08:02:03.650Z,100184.44
2022-08-07T08:04:34.208Z,100188.34
2022-08-07T08:07:07.636Z,100192.25
2022-08-07T08:09:52.509Z,100197.63
2022-08-07T08:12:52.157Z,100185.34
2022-08-07T08:15:16.435Z,100194.81
2022-08-07T08:17:57.501Z,100187.56
2022-08-07T08:20:32.247Z,100170.03
2022-08-07T08:23:21.011Z,100179.16
2022-08-07T08:26:18.412Z,100185.13
2022-08-07T08:28:52.333Z,100178.44
2022-08-07T08:31:58.587Z,100178.34
2022-08-07T08:34:34.841Z,100149.75
2022-08-07T08:37:09.867Z,100178.69
2022-08-07T08:39:58.643Z,100130.63
2022-08-07T08:42:45.402Z,100137.75
2022-08-07T08:45:59.383Z,100135.25
2022-08-07T08:48:51.037Z,100146.22
2022-08-07T08:52:01.163Z,100177.41
2022-08-07T08:54:35.195Z,100187.97
2022-08-07T08:57:11.176Z,100154.44
2022-08-07T09:00:00.108Z,100178.69
2022-08-07T09:02:52.273Z,100194.59
2022-08-07T09:05:53.282Z,100188.22
2022-08-07T09:08:36.217Z,100183.13
2022-08-07T09:11:51.224Z,100174.34
2022-08-07T09:16:21.700Z,100191.47
2022-08-07T09:18:58.232Z,100186.75
2022-08-07T09:22:22.455Z,100179.84
2022-08-07T09:25:17.197Z,100179.91
2022-08-07T09:28:05.358Z,100175.38
2022-08-07T09:31:12.245Z,100156.91
2022-08-07T09:34:13.953Z,100161.94
2022-08-07T09:37:05.102Z,100180.88
2022-08-07T09:40:30.447Z,100167.81
2022-08-07T09:44:06.000Z,100168.88
2022-08-07T09:47:55.117Z,100170.56
2022-08-07T09:50:22.531Z,100113.78
2022-08-07T09:53:03.175Z,100151.06
2022-08-07T09:56:37.469Z,100158.91
2022-08-07T10:00:01.167Z,100165.19
2022-08-07T10:04:03.081Z,100156.94
2022-08-07T10:06:53.891Z,100154.97
2022-08-07T10:10:21.302Z,100137.16
2022-08-07T10:13:55.120Z,100139.56
2022-08-07T10:16:54.719Z,100136.41
2022-08-07T10:19:58.512Z,100145.69
2022-08-07T10:23:07.641Z,100144.78
2022-08-07T10:26:07.919Z,100141.09
2022-08-07T10:29:00.172Z,100131.44
2022-08-07T10:31:52.911Z,100123.00
2022-08-07T10:34:58.091Z,100133.09
2022-08-07T10:38:21.065Z,100133.63
2022-08-07T10:41:46.915Z,100122.69
2022-08-07T10:44:38.379Z,100118.72
2022-08-07T10:47:54.410Z,100130.59
2022-08-07T10:50:44.892Z,100108.59
2022-08-07T10:53:47.014Z,100093.69
2022-08-07T10:56:55.182Z,100111.28
2022-08-07T10:59:53.678Z,100058.16
2022-08-07T11:02:53.874Z,100092.41
2022-08-07T11:05:50.656Z,100106.03
2022-08-07T11:08:46.302Z,100062.25
2022-08-07T11:11:43.033Z,100060.47
2022-08-07T11:14:56.909Z,100105.59
2022-08-07T11:17:47.329Z,100090.59
2022-08-07T11:20:40.912Z,100094.63
2022-08-07T11:24:04.033Z,100091.53
2022-08-07T11:27:04.152Z,100095.59
2022-08-07T11:30:17.607Z,100090.13
2022-08-07T11:33:14.158Z,100093.75
2022-08-07T11:36:34.692Z,100084.13
2022-08-07T11:39:59.945Z,100073.56
2022-08-07T11:43:09.804Z,100017.44
2022-08-07T11:46:11.034Z,100071.63
2022-08-07T11:49:50.555Z,100081.13
2022-08-07T11:52:28.953Z,100051.13
2022-08-07T11:56:24.928Z,100068.09
2022-08-07T11:59:01.292Z,100066.53
2022-08-07T12:02:20.932Z,100066.19
2022-08-07T12:05:49.186Z,100062.16
2022-08-07T12:08:48.682Z,100035.34
2022-08-07T12:11:35.778Z,100032.00
2022-08-07T12:14:22.411Z,100048.66
2022-08-07T12:17:19.694Z,100056.47
2022-08-07T12:20:30.580Z,100007.16
2022-08-07T12:24:06.329Z,100044.59
2022-08-07T12:26:40.537Z,100048.06
2022-08-07T12:29:23.338Z,100041.75
2022-08-07T12:32:28.706Z,99997.34
2022-08-07T12:34:59.070Z,100018.19
2022-08-07T12:38:11.172Z,100005.66
2022-08-07T12:40:46.942Z,100036.81
2022-08-07T12:44:01.460Z,100015.19
2022-08-07T12:46:31.977Z,100020.34
2022-08-07T12:49:48.626Z,100025.06
2022-08-07T12:52:34.042Z,100012.75
2022-08-07T12:55:22.381Z,100028.41
2022-08-07T12:58:14.818Z,100010.84
2022-08-07T13:01:14.135Z,100010.63
2022-08-07T13:04:36.101Z,99998.00
2022-08-07T13:08:11.661Z,100010.50
2022-08-07T13:10:52.097Z,100002.00
2022-08-07T13:13:50.298Z,99946.28
2022-08-07T13:17:05.027Z,100001.09
2022-08-07T13:20:21.787Z,99988.84
2022-08-07T13:23:59.802Z,99984.78
2022-08-07T13:26:21.703Z,99983.28
2022-08-07T13:29:12.719Z,99978.44
2022-08-07T13:32:15.267Z,99985.84
2022-08-07T13:35:15.811Z,99976.81
2022-08-07T13:38:13.533Z,99952.94
2022-08-07T13:41:11.307Z,99976.63
2022-08-07T13:43:52.817Z,99945.94
2022-08-07T13:46:37.592Z,99980.88
2022-08-07T13:50:35.356Z,99977.53
2022-08-07T13:52:30.449Z,99973.97
2022-08-07T13:54:59.474Z,99971.16
2022-08-07T13:57:32.154Z,99968.94
2022-08-07T14:00:13.472Z,99982.50
2022-08-07T14:03:04.983Z,99917.78
2022-08-07T14:05:37.290Z,99919.72
2022-08-07T14:08:09.185Z,99954.06
2022-08-07T14:10:43.533Z,99964.19
2022-08-07T14:13:20.963Z,99959.19
2022-08-07T14:16:06.433Z,99966.88
2022-08-07T14:18:57.100Z,99960.91
2022-08-07T14:22:01.668Z,99963.28
2022-08-07T14:24:41.252Z,99965.66
2022-08-07T14:28:11.223Z,99935.59
2022-08-07T14:30:11.984Z,99947.28
2022-08-07T14:32:50.762Z,99950.63
2022-08-07T14:35:42.796Z,99953.69
2022-08-07T14:38:26.147Z,99896.97
2022-08-07T14:41:12.187Z,99938.66
2022-08-07T14:43:58.072Z,99946.84
2022-08-07T14:46:37.594Z,99905.13
2022-08-07T14:52:24.470Z,99940.09
2022-08-07T14:54:58.515Z,99935.47
2022-08-07T15:12:01.880Z,99873.03
2022-08-07T15:14:55.944Z,99934.13
2022-08-07T15:17:55.425Z,99895.78
2022-08-07T15:20:33.363Z,99934.53
2022-08-07T15:23:20.329Z,99929.03
2022-08-07T15:25:58.426Z,99935.47
2022-08-07T15:28:34.764Z,99904.16
2022-08-07T15:31:09.678Z,99940.19
2022-08-07T15:33:42.771Z,99948.81
2022-08-07T15:36:12.770Z,99943.28
2022-08-07T15:38:58.917Z,99932.66
2022-08-07T15:42:44.981Z,99901.13
2022-08-07T15:44:23.814Z,99939.63
2022-08-07T15:47:08.758Z,99935.97
2022-08-07T15:50:03.788Z,99940.53
2022-08-07T15:52:38.228Z,99903.31
2022-08-07T15:55:12.280Z,99936.44
2022-08-07T15:57:48.754Z,99944.09
2022-08-07T16:00:31.697Z,99947.84
2022-08-07T16:03:46.436Z,99956.69
2022-08-07T16:06:16.600Z,99914.09
2022-08-07T16:08:47.706Z,99948.97
2022-08-07T16:11:52.878Z,99950.81
2022-08-07T16:14:59.485Z,99947.25
2022-08-07T16:18:49.544Z,99902.59
2022-08-07T16:22:01.288Z,99936.91
2022-08-07T16:24:37.894Z,99898.59
2022-08-07T16:27:40.744Z,99919.28
2022-08-07T16:30:31.199Z,99952.09
2022-08-07T16:34:03.182Z,99939.03
2022-08-07T16:37:01.641Z,99950.22
2022-08-07T16:40:28.792Z,99949.53
2022-08-07T16:43:22.803Z,99947.47
2022-08-07T16:47:06.681Z,99908.38
2022-08-07T16:50:20.593Z,99898.19
2022-08-07T16:52:52.359Z,99946.25
2022-08-07T16:55:47.184Z,99900.00
2022-08-07T16:59:10.053Z,99940.53
2022-08-07T17:01:41.217Z,99951.63
2022-08-07T17:04:24.426Z,99955.31
2022-08-07T17:07:28.550Z,99922.53
2022-08-07T17:10:54.715Z,99966.00
2022-08-07T17:14:18.055Z,99949.06
2022-08-07T17:17:01.522Z,99902.75
2022-08-07T17:20:02.790Z,99944.69
2022-08-07T17:23:08.849Z,99954.94
2022-08-07T17:26:02.765Z,99959.44
2022-08-07T17:28:50.011Z,99962.13
2022-08-07T17:31:25.116Z,99915.72
2022-08-07T17:34:34.219Z,99938.94
2022-08-07T17:37:16.101Z,99926.97
2022-08-07T17:40:30.519Z,99970.13
2022-08-07T17:43:18.416Z,99970.94
2022-08-07T17:46:34.923Z,99987.94
2022-08-07T17:49:46.220Z,99978.03
2022-08-07T17:52:49.889Z,99973.97
2022-08-07T17:56:00.660Z,99981.22
2022-08-07T17:58:46.366Z,99958.84
2022-08-07T18:01:56.759Z,99975.50
2022-08-07T18:04:57.043Z,99975.66
2022-08-07T18:07:36.149Z,99992.84
2022-08-07T18:10:37.683Z,99981.28
2022-08-07T18:13:43.628Z,100000.34
2022-08-07T18:16:32.602Z,99992.56
2022-08-07T18:21:11.509Z,99995.53
2022-08-07T18:22:16.916Z,99999.53
2022-08-07T18:24:56.926Z,99969.34
2022-08-07T18:27:50.248Z,100010.91
2022-08-07T18:30:47.792Z,100012.66
2022-08-07T18:33:57.539Z,99995.56
2022-08-07T18:36:33.125Z,99995.25
2022-08-07T18:40:05.542Z,100011.38
2022-08-07T18:42:29.036Z,100012.44
2022-08-07T18:45:39.767Z,99979.28
2022-08-07T18:50:06.133Z,100013.56
2022-08-07T18:52:34.995Z,99942.22
2022-08-07T18:54:27.929Z,100009.69
2022-08-07T18:57:30.366Z,100015.53
2022-08-07T19:00:32.795Z,99985.69
2022-08-07T19:03:49.649Z,100017.47
2022-08-07T19:06:51.441Z,100016.44
2022-08-07T19:09:57.432Z,100009.16
2022-08-07T19:12:48.642Z,100023.41
2022-08-07T19:16:05.130Z,99983.94
2022-08-07T19:19:31.747Z,100008.28
2022-08-07T19:22:14.975Z,100027.81
2022-08-07T19:24:50.461Z,99980.56
2022-08-07T19:28:56.940Z,100021.91
2022-08-07T19:30:56.519Z,100030.19
2022-08-07T19:33:13.196Z,99970.97
2022-08-07T19:35:56.779Z,100038.50
2022-08-07T19:38:32.562Z,100033.13
2022-08-07T19:41:04.113Z,100032.88
2022-08-07T19:43:49.272Z,100029.22
2022-08-07T19:46:30.125Z,100039.66
2022-08-07T19:49:58.075Z,100037.16
2022-08-07T19:52:18.949Z,99954.03
2022-08-07T19:54:56.684Z,100037.03
2022-08-07T19:58:02.037Z,100046.28
2022-08-07T20:00:28.451Z,100039.81
2022-08-07T20:03:35.487Z,100039.63
2022-08-07T20:06:04.435Z,100051.56
2022-08-07T20:08:37.005Z,100049.34
2022-08-07T20:11:34.105Z,99995.00
2022-08-07T20:14:07.243Z,100051.53
2022-08-07T20:16:45.498Z,100046.19
2022-08-07T20:19:16.472Z,100038.44
2022-08-07T20:21:48.061Z,100041.75
2022-08-07T20:24:28.749Z,100043.41
2022-08-07T20:27:07.650Z,100028.63
2022-08-07T20:29:57.463Z,100028.28
2022-08-07T20:32:42.446Z,100048.09
2022-08-07T20:35:17.813Z,100035.84
2022-08-07T20:37:58.915Z,100005.63
2022-08-07T20:40:34.688Z,100053.56
2022-08-07T20:43:14.666Z,99992.44
2022-08-07T20:46:26.613Z,100045.25
2022-08-07T20:49:54.194Z,100050.25
2022-08-07T20:51:35.793Z,100049.56
2022-08-07T20:54:12.081Z,100053.94
2022-08-07T20:56:45.912Z,100048.13
2022-08-07T20:59:27.208Z,100057.25
2022-08-07T21:02:54.324Z,100001.94
2022-08-07T21:05:51.105Z,100046.09
2022-08-07T21:08:41.377Z,100043.44
2022-08-07T21:11:29.083Z,100044.72
2022-08-07T21:14:32.553Z,100001.72
2022-08-07T21:18:03.514Z,100008.19
2022-08-07T21:20:04.983Z,100008.25
2022-08-07T21:22:53.464Z,100045.69
2022-08-07T21:25:39.194Z,100051.56
2022-08-07T21:28:50.193Z,100048.88
2022-08-07T21:31:49.916Z,100047.88
2022-08-07T21:34:26.638Z,100059.06
2022-08-07T21:37:57.527Z,100049.06
2022-08-07T21:40:54.483Z,100054.00
2022-08-07T21:43:55.884Z,100059.66
2022-08-07T21:46:50.535Z,100051.09
2022-08-07T21:50:02.675Z,100049.72
2022-08-07T21:52:54.808Z,100053.03
2022-08-07T21:55:48.040Z,100059.28
2022-08-07T21:58:47.521Z,100054.53
2022-08-07T22:02:10.503Z,100060.00
2022-08-07T22:04:28.959Z,100027.69
2022-08-07T22:07:31.600Z,100057.38
2022-08-07T22:10:29.212Z,100056.91
2022-08-07T22:13:13.586Z,100055.22
2022-08-07T22:16:42.302Z,100060.78
2022-08-07T22:19:13.400Z,100054.22
2022-08-07T22:22:02.275Z,100046.75
2022-08-07T22:25:08.748Z,100059.09
2022-08-07T22:28:32.397Z,100059.63
2022-08-07T22:31:58.948Z,100066.66
2022-08-07T22:34:28.725Z,100069.06
2022-08-07T22:38:02.766Z,100082.72
2022-08-07T22:40:51.521Z,100073.47
2022-08-07T22:43:39.413Z,100054.66
2022-08-07T22:47:04.221Z,100021.44
2022-08-07T22:50:20.795Z,100068.88
2022-08-07T22:54:06.526Z,100067.31
2022-08-07T22:56:28.702Z,100029.59
2022-08-07T22:59:32.580Z,100059.22
2022-08-07T23:02:51.627Z,100063.28
2022-08-07T23:06:07.565Z,100054.13
2022-08-07T23:08:58.578Z,100067.66
2022-08-07T23:12:10.712Z,100074.13
2022-08-07T23:15:00.288Z,100063.75
2022-08-07T23:17:58.868Z,100063.34
2022-08-07T23:21:16.204Z,100060.41
2022-08-07T23:24:11.675Z,100027.84
2022-08-07T23:28:21.223Z,100061.94
2022-08-07T23:31:18.619Z,100072.47
2022-08-07T23:34:23.297Z,100069.66
2022-08-07T23:37:29.855Z,100062.78
2022-08-07T23:40:41.200Z,100064.91
2022-08-07T23:43:59.535Z,100067.84
2022-08-07T23:46:46.618Z,100067.28
2022-08-07T23:49:50.038Z,100070.94
2022-08-07T23:53:00.187Z,100071.50
2022-08-07T23:55:54.230Z,100071.63
